SHCA weather

Prefectura Aeropolicial de Carabineros Heliport
Santiago, Santiago Metropolitan Region, Chile

Public forecast

Using degrees Celsius for public forecast. Weather courtesy of forecast.io.

Closest aviation weather report (METAR) to Prefectura Aeropolicial de Carabineros Heliport

Report is more than 6 hours old.

Closest report is Eulogio Sánchez Airport, 0.1 nm (0.2 km) SE. Retrieved 2020/08/05 22:00 UTC (9 hours ago):

SCTB 052200Z 21003KT 9999 BKN033 OVC066 13/10 Q1024

Closest aviation forecast (TAF) to Prefectura Aeropolicial de Carabineros Heliport

Closest forecast is Comodoro Arturo Merino Benítez International Airport, 12.5 nm (23.1 km) WNW. Retrieved 2020/08/06 06:06 UTC (38 minutes ago):

TAF SCEL 060431Z 0606/0706 16004KT CAVOK TX17/0618Z TN04/0610Z BECMG 0607/0609 4000 BR NSC TEMPO 0609/0612 VRB02KT 0500 FG BKN003 BECMG 0615/0617 18005KT 6000 BECMG 0618/0620 20008KT CAVOK TEMPO 0619/0623 16008KT